Hautcharage, Luxembourg
Current Conditions -  °F | °C
As of 3:50 AM on Wednesday 22 Oct 2014 (Local Time) from ELLX Reporting Station
NA  
Wind Chill: 34°   Ceiling: NA
Heat Index: 41°   Visibility: 6mi
Dew Point: 37°   Wind: 13mph
Humidity: 87%   Direction: 270°W
Pressure: 30"   Gusts: NA
Location:  49.58°N, 5.91°E
Report Text: ELLX 220150Z AUTO 27011KT 9999 NDV 05/03 Q1016
Loading
Personal Weather Stations






























Interactive Weather Map
Tropical Storm Tracking
New forecast layout! Learn more

10-Day Weather Forecast

Advertisements
Track Severe Weather on mobile